sensor_id;sensor_type;location;lat;lon;timestamp;pressure;altitude;pressure_sealevel;temperature;humidity
44140;BME280;29803;51.048;4.686;2023-06-26T00:01:34;101325.13;;;22.73;100.00
44140;BME280;29803;51.048;4.686;2023-06-26T00:04:05;101327.50;;;22.70;100.00
44140;BME280;29803;51.048;4.686;2023-06-26T00:06:35;101318.56;;;22.63;100.00
44140;BME280;29803;51.048;4.686;2023-06-26T00:09:06;101314.63;;;22.59;100.00
44140;BME280;29803;51.048;4.686;2023-06-26T00:11:36;101314.63;;;22.59;100.00
44140;BME280;29803;51.048;4.686;2023-06-26T00:14:07;101317.00;;;22.55;100.00
44140;BME280;29803;51.048;4.686;2023-06-26T00:16:37;101323.03;;;22.45;100.00
44140;BME280;29803;51.048;4.686;2023-06-26T00:19:08;101323.38;;;22.37;100.00
44140;BME280;29803;51.048;4.686;2023-06-26T00:21:38;101323.72;;;22.29;100.00
44140;BME280;29803;51.048;4.686;2023-06-26T00:24:09;101331.97;;;22.22;100.00
44140;BME280;29803;51.048;4.686;2023-06-26T00:26:39;101324.47;;;22.18;100.00
44140;BME280;29803;51.048;4.686;2023-06-26T00:29:10;101328.72;;;22.14;100.00
44140;BME280;29803;51.048;4.686;2023-06-26T00:31:40;101335.09;;;22.08;100.00
44140;BME280;29803;51.048;4.686;2023-06-26T00:34:11;101338.53;;;22.03;100.00
44140;BME280;29803;51.048;4.686;2023-06-26T00:36:41;101335.44;;;22.00;100.00
44140;BME280;29803;51.048;4.686;2023-06-26T00:39:13;101329.19;;;21.92;100.00
44140;BME280;29803;51.048;4.686;2023-06-26T00:41:44;101332.41;;;21.89;100.00
44140;BME280;29803;51.048;4.686;2023-06-26T00:44:14;101337.88;;;21.89;100.00
44140;BME280;29803;51.048;4.686;2023-06-26T00:46:45;101329.53;;;21.84;100.00
44140;BME280;29803;51.048;4.686;2023-06-26T00:49:16;101330.66;;;21.77;100.00
44140;BME280;29803;51.048;4.686;2023-06-26T00:51:47;101335.97;;;21.71;100.00
44140;BME280;29803;51.048;4.686;2023-06-26T00:54:17;101327.25;;;21.63;100.00
44140;BME280;29803;51.048;4.686;2023-06-26T00:56:50;101330.31;;;21.55;100.00
44140;BME280;29803;51.048;4.686;2023-06-26T00:59:20;101337.13;;;21.45;100.00
44140;BME280;29803;51.048;4.686;2023-06-26T01:01:51;101338.22;;;21.38;100.00
44140;BME280;29803;51.048;4.686;2023-06-26T01:04:21;101335.78;;;21.30;100.00
44140;BME280;29803;51.048;4.686;2023-06-26T01:06:59;101342.97;;;21.24;100.00
44140;BME280;29803;51.048;4.686;2023-06-26T01:09:30;101348.72;;;21.16;100.00
44140;BME280;29803;51.048;4.686;2023-06-26T01:12:02;101349.16;;;21.13;100.00
44140;BME280;29803;51.048;4.686;2023-06-26T01:14:34;101352.09;;;21.11;100.00
44140;BME280;29803;51.048;4.686;2023-06-26T01:17:07;101362.78;;;21.13;100.00
44140;BME280;29803;51.048;4.686;2023-06-26T01:19:38;101363.84;;;21.12;100.00
44140;BME280;29803;51.048;4.686;2023-06-26T01:27:35;101357.66;;;20.98;100.00
44140;BME280;29803;51.048;4.686;2023-06-26T01:30:07;101361.25;;;20.99;100.00
44140;BME280;29803;51.048;4.686;2023-06-26T01:32:39;101373.03;;;20.92;100.00
44140;BME280;29803;51.048;4.686;2023-06-26T01:35:11;101374.56;;;20.88;100.00
44140;BME280;29803;51.048;4.686;2023-06-26T01:37:41;101367.88;;;20.84;100.00
44140;BME280;29803;51.048;4.686;2023-06-26T01:40:12;101370.03;;;20.76;100.00
44140;BME280;29803;51.048;4.686;2023-06-26T01:42:42;101374.69;;;20.68;100.00
44140;BME280;29803;51.048;4.686;2023-06-26T01:45:21;101378.50;;;20.61;100.00
44140;BME280;29803;51.048;4.686;2023-06-26T01:47:57;101383.13;;;20.60;100.00
44140;BME280;29803;51.048;4.686;2023-06-26T01:50:31;101377.91;;;20.59;100.00
44140;BME280;29803;51.048;4.686;2023-06-26T01:53:17;101377.72;;;20.54;100.00
44140;BME280;29803;51.048;4.686;2023-06-26T01:55:59;101379.59;;;20.53;100.00
44140;BME280;29803;51.048;4.686;2023-06-26T01:58:47;101373.13;;;20.48;100.00
44140;BME280;29803;51.048;4.686;2023-06-26T02:01:18;101373.75;;;20.43;100.00
44140;BME280;29803;51.048;4.686;2023-06-26T02:03:52;101379.66;;;20.40;100.00
44140;BME280;29803;51.048;4.686;2023-06-26T02:06:22;101379.03;;;20.38;100.00
44140;BME280;29803;51.048;4.686;2023-06-26T02:08:53;101376.13;;;20.33;100.00
44140;BME280;29803;51.048;4.686;2023-06-26T02:11:26;101375.94;;;20.28;100.00
44140;BME280;29803;51.048;4.686;2023-06-26T02:13:57;101384.78;;;20.23;100.00
44140;BME280;29803;51.048;4.686;2023-06-26T02:16:28;101387.72;;;20.22;100.00
44140;BME280;29803;51.048;4.686;2023-06-26T02:18:59;101382.50;;;20.20;100.00
44140;BME280;29803;51.048;4.686;2023-06-26T02:21:29;101381.03;;;20.17;100.00
44140;BME280;29803;51.048;4.686;2023-06-26T02:24:00;101385.88;;;20.15;100.00
44140;BME280;29803;51.048;4.686;2023-06-26T02:26:32;101380.44;;;20.09;100.00
44140;BME280;29803;51.048;4.686;2023-06-26T02:29:02;101386.72;;;20.09;100.00
44140;BME280;29803;51.048;4.686;2023-06-26T02:31:33;101393.66;;;20.05;100.00
44140;BME280;29803;51.048;4.686;2023-06-26T02:34:04;101385.91;;;20.02;100.00
44140;BME280;29803;51.048;4.686;2023-06-26T02:36:34;101402.28;;;19.96;100.00
44140;BME280;29803;51.048;4.686;2023-06-26T02:39:05;101402.72;;;19.86;100.00
44140;BME280;29803;51.048;4.686;2023-06-26T02:41:36;101407.78;;;19.76;100.00
44140;BME280;29803;51.048;4.686;2023-06-26T02:44:06;101407.16;;;19.74;100.00
44140;BME280;29803;51.048;4.686;2023-06-26T02:46:37;101414.91;;;19.70;100.00
44140;BME280;29803;51.048;4.686;2023-06-26T02:49:07;101409.88;;;19.67;100.00
44140;BME280;29803;51.048;4.686;2023-06-26T02:51:38;101410.94;;;19.66;100.00
44140;BME280;29803;51.048;4.686;2023-06-26T02:54:08;101416.59;;;19.64;100.00
44140;BME280;29803;51.048;4.686;2023-06-26T02:56:39;101422.06;;;19.64;100.00
44140;BME280;29803;51.048;4.686;2023-06-26T02:59:09;101419.09;;;19.73;100.00
44140;BME280;29803;51.048;4.686;2023-06-26T03:01:40;101424.34;;;19.74;100.00
44140;BME280;29803;51.048;4.686;2023-06-26T03:04:10;101426.41;;;19.72;100.00
44140;BME280;29803;51.048;4.686;2023-06-26T03:06:41;101421.63;;;19.74;100.00
44140;BME280;29803;51.048;4.686;2023-06-26T03:09:11;101426.22;;;19.74;100.00
44140;BME280;29803;51.048;4.686;2023-06-26T03:11:42;101428.94;;;19.74;100.00
44140;BME280;29803;51.048;4.686;2023-06-26T03:14:12;101432.09;;;19.71;100.00
44140;BME280;29803;51.048;4.686;2023-06-26T03:16:43;101425.19;;;19.68;100.00
44140;BME280;29803;51.048;4.686;2023-06-26T03:19:13;101432.50;;;19.61;100.00
44140;BME280;29803;51.048;4.686;2023-06-26T03:21:44;101434.59;;;19.59;100.00
44140;BME280;29803;51.048;4.686;2023-06-26T03:24:14;101450.91;;;19.52;100.00
44140;BME280;29803;51.048;4.686;2023-06-26T03:26:45;101442.97;;;19.51;100.00
44140;BME280;29803;51.048;4.686;2023-06-26T03:29:15;101447.16;;;19.47;100.00
44140;BME280;29803;51.048;4.686;2023-06-26T03:31:46;101448.00;;;19.40;100.00
44140;BME280;29803;51.048;4.686;2023-06-26T03:34:17;101447.16;;;19.33;100.00
44140;BME280;29803;51.048;4.686;2023-06-26T03:36:47;101456.38;;;19.26;100.00
44140;BME280;29803;51.048;4.686;2023-06-26T03:39:18;101461.16;;;19.17;100.00
44140;BME280;29803;51.048;4.686;2023-06-26T03:41:48;101451.56;;;19.08;100.00
44140;BME280;29803;51.048;4.686;2023-06-26T03:44:19;101463.25;;;19.02;100.00
44140;BME280;29803;51.048;4.686;2023-06-26T03:46:49;101466.56;;;18.97;100.00
44140;BME280;29803;51.048;4.686;2023-06-26T03:49:20;101482.31;;;19.08;100.00
44140;BME280;29803;51.048;4.686;2023-06-26T03:51:50;101479.38;;;19.03;100.00
44140;BME280;29803;51.048;4.686;2023-06-26T03:54:21;101483.09;;;18.96;100.00
44140;BME280;29803;51.048;4.686;2023-06-26T03:56:51;101485.19;;;18.94;100.00
44140;BME280;29803;51.048;4.686;2023-06-26T03:59:22;101490.00;;;18.92;100.00
44140;BME280;29803;51.048;4.686;2023-06-26T04:01:52;101494.41;;;18.93;100.00
44140;BME280;29803;51.048;4.686;2023-06-26T04:04:23;101496.47;;;18.91;100.00
44140;BME280;29803;51.048;4.686;2023-06-26T04:06:53;101500.88;;;18.92;100.00
44140;BME280;29803;51.048;4.686;2023-06-26T04:09:25;101506.31;;;18.92;100.00
44140;BME280;29803;51.048;4.686;2023-06-26T04:11:55;101507.97;;;18.86;100.00
44140;BME280;29803;51.048;4.686;2023-06-26T04:14:26;101507.13;;;18.85;100.00
44140;BME280;29803;51.048;4.686;2023-06-26T04:16:56;101516.72;;;18.81;100.00
44140;BME280;29803;51.048;4.686;2023-06-26T04:19:28;101512.34;;;18.80;100.00
44140;BME280;29803;51.048;4.686;2023-06-26T04:21:58;101510.22;;;18.76;100.00
44140;BME280;29803;51.048;4.686;2023-06-26T04:24:29;101519.03;;;18.78;100.00
44140;BME280;29803;51.048;4.686;2023-06-26T04:26:59;101520.50;;;18.80;100.00
44140;BME280;29803;51.048;4.686;2023-06-26T04:29:30;101519.44;;;18.81;100.00
44140;BME280;29803;51.048;4.686;2023-06-26T04:32:00;101523.84;;;18.82;100.00
44140;BME280;29803;51.048;4.686;2023-06-26T04:34:31;101529.50;;;18.81;100.00
44140;BME280;29803;51.048;4.686;2023-06-26T04:37:04;101522.38;;;18.80;100.00
44140;BME280;29803;51.048;4.686;2023-06-26T04:39:35;101532.00;;;18.82;100.00
44140;BME280;29803;51.048;4.686;2023-06-26T04:42:07;101537.44;;;18.82;100.00
44140;BME280;29803;51.048;4.686;2023-06-26T04:44:38;101544.56;;;18.83;100.00
44140;BME280;29803;51.048;4.686;2023-06-26T04:47:08;101542.06;;;18.88;100.00
44140;BME280;29803;51.048;4.686;2023-06-26T04:49:39;101545.41;;;18.91;100.00
44140;BME280;29803;51.048;4.686;2023-06-26T04:52:13;101541.66;;;18.92;100.00
44140;BME280;29803;51.048;4.686;2023-06-26T04:54:44;101550.25;;;18.95;100.00
44140;BME280;29803;51.048;4.686;2023-06-26T04:57:14;101550.88;;;18.97;100.00
44140;BME280;29803;51.048;4.686;2023-06-26T04:59:45;101545.03;;;19.00;100.00
44140;BME280;29803;51.048;4.686;2023-06-26T05:02:16;101548.16;;;18.97;100.00
44140;BME280;29803;51.048;4.686;2023-06-26T05:04:46;101556.94;;;18.99;100.00
44140;BME280;29803;51.048;4.686;2023-06-26T05:07:18;101547.13;;;18.98;100.00
44140;BME280;29803;51.048;4.686;2023-06-26T05:09:49;101554.84;;;18.95;100.00
44140;BME280;29803;51.048;4.686;2023-06-26T05:12:19;101553.56;;;18.91;100.00
44140;BME280;29803;51.048;4.686;2023-06-26T05:14:49;101567.16;;;18.91;100.00
44140;BME280;29803;51.048;4.686;2023-06-26T05:17:20;101575.72;;;18.87;100.00
44140;BME280;29803;51.048;4.686;2023-06-26T05:19:50;101580.53;;;18.85;100.00
44140;BME280;29803;51.048;4.686;2023-06-26T05:22:21;101579.09;;;18.89;100.00
44140;BME280;29803;51.048;4.686;2023-06-26T05:24:54;101585.81;;;18.94;100.00
44140;BME280;29803;51.048;4.686;2023-06-26T05:27:25;101594.38;;;18.97;100.00
44140;BME280;29803;51.048;4.686;2023-06-26T05:29:56;101583.31;;;18.99;100.00
44140;BME280;29803;51.048;4.686;2023-06-26T05:32:27;101584.34;;;18.98;100.00
44140;BME280;29803;51.048;4.686;2023-06-26T05:34:58;101595.63;;;19.01;100.00
44140;BME280;29803;51.048;4.686;2023-06-26T05:37:31;101592.75;;;19.09;100.00
44140;BME280;29803;51.048;4.686;2023-06-26T05:40:03;101605.09;;;19.12;100.00
44140;BME280;29803;51.048;4.686;2023-06-26T05:42:35;101605.91;;;19.12;100.00
44140;BME280;29803;51.048;4.686;2023-06-26T05:45:06;101603.44;;;19.18;100.00
44140;BME280;29803;51.048;4.686;2023-06-26T05:47:37;101603.66;;;19.23;100.00
44140;BME280;29803;51.048;4.686;2023-06-26T05:50:08;101606.81;;;19.26;100.00
44140;BME280;29803;51.048;4.686;2023-06-26T05:52:40;101607.25;;;19.30;100.00
44140;BME280;29803;51.048;4.686;2023-06-26T05:55:11;101618.13;;;19.30;100.00
44140;BME280;29803;51.048;4.686;2023-06-26T05:57:43;101625.06;;;19.39;100.00
44140;BME280;29803;51.048;4.686;2023-06-26T06:00:14;101629.69;;;19.52;100.00
44140;BME280;29803;51.048;4.686;2023-06-26T06:02:45;101627.25;;;19.90;100.00
44140;BME280;29803;51.048;4.686;2023-06-26T06:05:15;101619.41;;;20.80;100.00
44140;BME280;29803;51.048;4.686;2023-06-26T06:07:46;101626.25;;;21.72;100.00
44140;BME280;29803;51.048;4.686;2023-06-26T06:10:17;101631.09;;;22.27;100.00
44140;BME280;29803;51.048;4.686;2023-06-26T06:12:47;101625.50;;;22.58;100.00
44140;BME280;29803;51.048;4.686;2023-06-26T06:15:18;101621.59;;;22.91;100.00
44140;BME280;29803;51.048;4.686;2023-06-26T06:17:48;101624.91;;;23.41;100.00
44140;BME280;29803;51.048;4.686;2023-06-26T06:20:19;101625.09;;;23.58;100.00
44140;BME280;29803;51.048;4.686;2023-06-26T06:22:50;101630.94;;;23.62;100.00
44140;BME280;29803;51.048;4.686;2023-06-26T06:25:20;101637.22;;;23.92;100.00
44140;BME280;29803;51.048;4.686;2023-06-26T06:27:51;101644.88;;;24.02;100.00
44140;BME280;29803;51.048;4.686;2023-06-26T06:30:21;101645.91;;;23.89;100.00
44140;BME280;29803;51.048;4.686;2023-06-26T06:32:52;101652.34;;;23.83;100.00
44140;BME280;29803;51.048;4.686;2023-06-26T06:35:22;101658.69;;;24.07;100.00
44140;BME280;29803;51.048;4.686;2023-06-26T06:37:53;101656.41;;;23.92;100.00
44140;BME280;29803;51.048;4.686;2023-06-26T06:40:24;101660.69;;;23.88;100.00
44140;BME280;29803;51.048;4.686;2023-06-26T06:42:56;101661.16;;;24.50;100.00
44140;BME280;29803;51.048;4.686;2023-06-26T06:45:26;101666.25;;;24.70;100.00
44140;BME280;29803;51.048;4.686;2023-06-26T06:47:57;101667.19;;;24.76;100.00
44140;BME280;29803;51.048;4.686;2023-06-26T06:50:27;101677.06;;;25.00;100.00
44140;BME280;29803;51.048;4.686;2023-06-26T06:52:57;101682.41;;;25.19;100.00
44140;BME280;29803;51.048;4.686;2023-06-26T06:55:28;101693.38;;;25.19;100.00
44140;BME280;29803;51.048;4.686;2023-06-26T06:57:59;101711.41;;;25.15;100.00
44140;BME280;29803;51.048;4.686;2023-06-26T07:00:29;101699.38;;;24.92;100.00
44140;BME280;29803;51.048;4.686;2023-06-26T07:03:01;101698.22;;;24.53;100.00
44140;BME280;29803;51.048;4.686;2023-06-26T07:05:32;101707.75;;;24.39;100.00
44140;BME280;29803;51.048;4.686;2023-06-26T07:08:03;101703.56;;;25.07;100.00
44140;BME280;29803;51.048;4.686;2023-06-26T07:10:34;101685.25;;;25.52;100.00
44140;BME280;29803;51.048;4.686;2023-06-26T07:13:04;101703.28;;;25.20;100.00
44140;BME280;29803;51.048;4.686;2023-06-26T07:15:35;101706.16;;;25.01;100.00
44140;BME280;29803;51.048;4.686;2023-06-26T07:18:05;101710.13;;;24.94;100.00
44140;BME280;29803;51.048;4.686;2023-06-26T07:20:36;101710.38;;;24.69;100.00
44140;BME280;29803;51.048;4.686;2023-06-26T07:23:06;101715.94;;;24.27;100.00
44140;BME280;29803;51.048;4.686;2023-06-26T07:25:37;101714.81;;;24.46;100.00
44140;BME280;29803;51.048;4.686;2023-06-26T07:28:23;101724.56;;;24.89;100.00
44140;BME280;29803;51.048;4.686;2023-06-26T07:30:54;101728.53;;;25.45;100.00
44140;BME280;29803;51.048;4.686;2023-06-26T07:33:24;101730.69;;;25.43;100.00
44140;BME280;29803;51.048;4.686;2023-06-26T07:35:55;101734.38;;;26.06;100.00
44140;BME280;29803;51.048;4.686;2023-06-26T07:38:25;101733.44;;;26.00;100.00
44140;BME280;29803;51.048;4.686;2023-06-26T07:40:56;101727.53;;;26.25;100.00
44140;BME280;29803;51.048;4.686;2023-06-26T07:43:26;101726.38;;;26.38;100.00
44140;BME280;29803;51.048;4.686;2023-06-26T07:45:57;101727.38;;;26.82;100.00
44140;BME280;29803;51.048;4.686;2023-06-26T07:48:28;101720.88;;;26.55;100.00
44140;BME280;29803;51.048;4.686;2023-06-26T07:50:59;101724.34;;;26.00;100.00
44140;BME280;29803;51.048;4.686;2023-06-26T07:53:29;101732.56;;;26.12;100.00
44140;BME280;29803;51.048;4.686;2023-06-26T07:56:00;101737.72;;;26.42;100.00
44140;BME280;29803;51.048;4.686;2023-06-26T07:58:30;101741.31;;;25.80;100.00
44140;BME280;29803;51.048;4.686;2023-06-26T08:01:01;101747.81;;;25.22;100.00
44140;BME280;29803;51.048;4.686;2023-06-26T08:03:31;101746.88;;;25.16;100.00
44140;BME280;29803;51.048;4.686;2023-06-26T08:06:02;101736.31;;;25.65;100.00
44140;BME280;29803;51.048;4.686;2023-06-26T08:08:33;101737.63;;;26.20;100.00
44140;BME280;29803;51.048;4.686;2023-06-26T08:11:04;101731.81;;;26.67;100.00
44140;BME280;29803;51.048;4.686;2023-06-26T08:13:34;101744.09;;;27.36;100.00
44140;BME280;29803;51.048;4.686;2023-06-26T08:16:05;101732.75;;;27.33;100.00
44140;BME280;29803;51.048;4.686;2023-06-26T08:18:35;101740.81;;;26.79;100.00
44140;BME280;29803;51.048;4.686;2023-06-26T08:21:05;101748.19;;;26.95;100.00
44140;BME280;29803;51.048;4.686;2023-06-26T08:23:36;101751.16;;;26.21;100.00
44140;BME280;29803;51.048;4.686;2023-06-26T08:26:06;101754.84;;;25.98;100.00
44140;BME280;29803;51.048;4.686;2023-06-26T08:28:37;101739.16;;;25.82;100.00
44140;BME280;29803;51.048;4.686;2023-06-26T08:31:07;101745.13;;;25.79;100.00
44140;BME280;29803;51.048;4.686;2023-06-26T08:33:38;101748.75;;;25.68;100.00
44140;BME280;29803;51.048;4.686;2023-06-26T08:36:08;101737.16;;;25.77;100.00
44140;BME280;29803;51.048;4.686;2023-06-26T08:38:39;101750.63;;;26.75;100.00
44140;BME280;29803;51.048;4.686;2023-06-26T08:41:11;101759.19;;;26.95;100.00
44140;BME280;29803;51.048;4.686;2023-06-26T08:43:41;101762.72;;;26.40;100.00
44140;BME280;29803;51.048;4.686;2023-06-26T08:46:12;101766.53;;;26.51;100.00
44140;BME280;29803;51.048;4.686;2023-06-26T08:48:48;101764.31;;;26.36;100.00
44140;BME280;29803;51.048;4.686;2023-06-26T08:51:20;101766.31;;;25.67;100.00
44140;BME280;29803;51.048;4.686;2023-06-26T08:54:09;101773.03;;;24.95;100.00
44140;BME280;29803;51.048;4.686;2023-06-26T08:56:44;101770.69;;;25.51;100.00
44140;BME280;29803;51.048;4.686;2023-06-26T08:59:16;101775.28;;;25.22;100.00
44140;BME280;29803;51.048;4.686;2023-06-26T09:01:47;101780.38;;;25.70;100.00
44140;BME280;29803;51.048;4.686;2023-06-26T09:04:18;101770.34;;;26.04;100.00
44140;BME280;29803;51.048;4.686;2023-06-26T09:06:48;101762.97;;;26.22;100.00
44140;BME280;29803;51.048;4.686;2023-06-26T09:09:19;101774.38;;;26.98;100.00
44140;BME280;29803;51.048;4.686;2023-06-26T09:11:50;101789.50;;;27.56;100.00
44140;BME280;29803;51.048;4.686;2023-06-26T09:14:21;101785.03;;;27.50;100.00
44140;BME280;29803;51.048;4.686;2023-06-26T09:16:51;101788.34;;;27.30;100.00
44140;BME280;29803;51.048;4.686;2023-06-26T09:19:22;101794.47;;;27.15;100.00
44140;BME280;29803;51.048;4.686;2023-06-26T09:21:54;101796.44;;;27.36;100.00
44140;BME280;29803;51.048;4.686;2023-06-26T09:24:24;101807.94;;;27.12;100.00
44140;BME280;29803;51.048;4.686;2023-06-26T09:26:55;101800.91;;;27.04;100.00
44140;BME280;29803;51.048;4.686;2023-06-26T09:29:26;101808.44;;;26.75;100.00
44140;BME280;29803;51.048;4.686;2023-06-26T09:31:56;101821.28;;;27.03;100.00
44140;BME280;29803;51.048;4.686;2023-06-26T09:34:44;101810.78;;;26.83;100.00
44140;BME280;29803;51.048;4.686;2023-06-26T09:37:15;101809.72;;;26.67;100.00
44140;BME280;29803;51.048;4.686;2023-06-26T09:39:45;101807.56;;;26.41;100.00
44140;BME280;29803;51.048;4.686;2023-06-26T09:42:16;101809.81;;;26.27;100.00
44140;BME280;29803;51.048;4.686;2023-06-26T09:44:47;101810.88;;;25.80;100.00
44140;BME280;29803;51.048;4.686;2023-06-26T09:47:19;101809.56;;;25.71;100.00
44140;BME280;29803;51.048;4.686;2023-06-26T09:49:50;101811.97;;;26.25;100.00
44140;BME280;29803;51.048;4.686;2023-06-26T09:52:26;101809.78;;;26.72;100.00
44140;BME280;29803;51.048;4.686;2023-06-26T09:55:08;101808.94;;;26.89;100.00
44140;BME280;29803;51.048;4.686;2023-06-26T09:57:39;101818.47;;;26.64;100.00
44140;BME280;29803;51.048;4.686;2023-06-26T10:00:11;101822.47;;;26.56;90.93
44140;BME280;29803;51.048;4.686;2023-06-26T10:02:42;101817.88;;;26.62;100.00
44140;BME280;29803;51.048;4.686;2023-06-26T10:05:12;101818.72;;;26.46;100.00
44140;BME280;29803;51.048;4.686;2023-06-26T10:07:43;101831.13;;;26.48;100.00
44140;BME280;29803;51.048;4.686;2023-06-26T10:10:16;101835.06;;;26.24;98.22
44140;BME280;29803;51.048;4.686;2023-06-26T10:12:49;101837.00;;;26.40;100.00
44140;BME280;29803;51.048;4.686;2023-06-26T10:15:23;101824.78;;;26.19;100.00
44140;BME280;29803;51.048;4.686;2023-06-26T10:17:56;101831.47;;;26.23;96.63
44140;BME280;29803;51.048;4.686;2023-06-26T10:20:27;101824.84;;;26.36;92.96
44140;BME280;29803;51.048;4.686;2023-06-26T10:22:59;101823.97;;;26.47;92.11
44140;BME280;29803;51.048;4.686;2023-06-26T10:25:31;101838.59;;;26.36;79.03
44140;BME280;29803;51.048;4.686;2023-06-26T10:28:03;101834.66;;;26.32;82.34
44140;BME280;29803;51.048;4.686;2023-06-26T10:30:36;101835.94;;;26.41;80.29
44140;BME280;29803;51.048;4.686;2023-06-26T10:33:07;101850.25;;;26.26;79.44
44140;BME280;29803;51.048;4.686;2023-06-26T10:39:03;101836.63;;;25.51;89.91
44140;BME280;29803;51.048;4.686;2023-06-26T10:41:37;101843.91;;;25.45;100.00
44140;BME280;29803;51.048;4.686;2023-06-26T10:44:10;101832.41;;;26.00;100.00
44140;BME280;29803;51.048;4.686;2023-06-26T10:46:54;101830.09;;;26.38;100.00
44140;BME280;29803;51.048;4.686;2023-06-26T10:49:28;101840.13;;;26.60;98.29
44140;BME280;29803;51.048;4.686;2023-06-26T10:52:01;101837.22;;;26.50;100.00
44140;BME280;29803;51.048;4.686;2023-06-26T10:54:32;101857.03;;;26.07;97.16
44140;BME280;29803;51.048;4.686;2023-06-26T10:57:03;101853.22;;;25.56;91.00
44140;BME280;29803;51.048;4.686;2023-06-26T10:59:39;101844.03;;;25.39;90.06
44140;BME280;29803;51.048;4.686;2023-06-26T11:02:11;101845.19;;;25.54;100.00
44140;BME280;29803;51.048;4.686;2023-06-26T11:05:00;101849.69;;;25.72;100.00
44140;BME280;29803;51.048;4.686;2023-06-26T11:07:30;101855.22;;;25.49;92.11
44140;BME280;29803;51.048;4.686;2023-06-26T11:10:08;101844.00;;;24.80;96.46
44140;BME280;29803;51.048;4.686;2023-06-26T11:12:41;101840.16;;;24.58;100.00
44140;BME280;29803;51.048;4.686;2023-06-26T11:15:15;101845.91;;;25.03;100.00
44140;BME280;29803;51.048;4.686;2023-06-26T11:17:46;101850.94;;;25.29;94.94
44140;BME280;29803;51.048;4.686;2023-06-26T11:20:17;101849.00;;;25.53;91.57
44140;BME280;29803;51.048;4.686;2023-06-26T11:22:52;101867.91;;;25.38;87.22
44140;BME280;29803;51.048;4.686;2023-06-26T11:25:22;101871.38;;;25.10;100.00
44140;BME280;29803;51.048;4.686;2023-06-26T11:27:54;101872.06;;;25.05;97.19
44140;BME280;29803;51.048;4.686;2023-06-26T11:30:25;101875.63;;;24.83;99.70
44140;BME280;29803;51.048;4.686;2023-06-26T11:33:06;101878.16;;;24.42;100.00
44140;BME280;29803;51.048;4.686;2023-06-26T11:35:37;101878.41;;;24.52;98.27
44140;BME280;29803;51.048;4.686;2023-06-26T11:38:08;101880.91;;;24.54;100.00
44140;BME280;29803;51.048;4.686;2023-06-26T11:40:39;101883.84;;;24.71;94.88
44140;BME280;29803;51.048;4.686;2023-06-26T11:43:09;101892.72;;;24.54;93.35
44140;BME280;29803;51.048;4.686;2023-06-26T11:45:40;101894.84;;;24.41;100.00
44140;BME280;29803;51.048;4.686;2023-06-26T11:48:10;101899.28;;;24.53;98.66
44140;BME280;29803;51.048;4.686;2023-06-26T11:50:41;101893.28;;;24.87;100.00
44140;BME280;29803;51.048;4.686;2023-06-26T11:53:14;101888.50;;;24.70;100.00
44140;BME280;29803;51.048;4.686;2023-06-26T11:55:45;101893.59;;;24.67;99.58
44140;BME280;29803;51.048;4.686;2023-06-26T11:58:15;101901.06;;;25.01;94.35
44140;BME280;29803;51.048;4.686;2023-06-26T12:00:47;101899.34;;;25.30;94.25
44140;BME280;29803;51.048;4.686;2023-06-26T12:03:18;101887.94;;;25.62;88.94
44140;BME280;29803;51.048;4.686;2023-06-26T12:05:49;101895.22;;;25.68;94.36
44140;BME280;29803;51.048;4.686;2023-06-26T12:08:22;101904.94;;;25.36;93.20
44140;BME280;29803;51.048;4.686;2023-06-26T12:10:53;101896.69;;;25.47;96.89
44140;BME280;29803;51.048;4.686;2023-06-26T12:13:24;101904.69;;;25.49;97.66
44140;BME280;29803;51.048;4.686;2023-06-26T12:15:54;101902.50;;;25.74;93.53
44140;BME280;29803;51.048;4.686;2023-06-26T12:18:25;101901.44;;;25.87;89.65
44140;BME280;29803;51.048;4.686;2023-06-26T12:24:07;101902.22;;;25.99;95.30
44140;BME280;29803;51.048;4.686;2023-06-26T12:26:38;101907.97;;;25.98;97.93
44140;BME280;29803;51.048;4.686;2023-06-26T12:29:10;101907.66;;;26.23;96.40
44140;BME280;29803;51.048;4.686;2023-06-26T12:31:43;101905.16;;;26.21;97.02
44140;BME280;29803;51.048;4.686;2023-06-26T12:34:19;101905.56;;;26.30;96.77
44140;BME280;29803;51.048;4.686;2023-06-26T12:36:50;101906.00;;;26.50;88.31
44140;BME280;29803;51.048;4.686;2023-06-26T12:39:21;101907.69;;;26.51;84.67
44140;BME280;29803;51.048;4.686;2023-06-26T12:44:46;101917.72;;;26.74;76.54
44140;BME280;29803;51.048;4.686;2023-06-26T12:47:18;101917.28;;;26.37;80.38
44140;BME280;29803;51.048;4.686;2023-06-26T12:49:50;101915.59;;;26.07;89.76
44140;BME280;29803;51.048;4.686;2023-06-26T12:52:21;101905.75;;;25.83;85.15
44140;BME280;29803;51.048;4.686;2023-06-26T12:54:53;101910.06;;;25.32;81.94
44140;BME280;29803;51.048;4.686;2023-06-26T12:57:24;101909.66;;;25.05;90.77
44140;BME280;29803;51.048;4.686;2023-06-26T12:59:56;101911.97;;;24.66;85.14
44140;BME280;29803;51.048;4.686;2023-06-26T13:02:26;101909.94;;;24.62;76.44
44140;BME280;29803;51.048;4.686;2023-06-26T13:04:57;101905.16;;;24.57;84.16
44140;BME280;29803;51.048;4.686;2023-06-26T13:07:27;101901.84;;;24.78;86.69
44140;BME280;29803;51.048;4.686;2023-06-26T13:09:58;101914.72;;;25.20;77.56
44140;BME280;29803;51.048;4.686;2023-06-26T13:12:28;101901.22;;;25.42;75.31
44140;BME280;29803;51.048;4.686;2023-06-26T13:14:59;101899.16;;;25.84;82.83
44140;BME280;29803;51.048;4.686;2023-06-26T13:17:30;101904.13;;;26.11;83.26
44140;BME280;29803;51.048;4.686;2023-06-26T13:20:00;101918.56;;;26.18;79.27